Time;durP1;ratioP1;P1;durP2;ratioP2;P2;SDS_P1;SDS_P2;PMS_P1;PMS_P2;Temp;Humidity;BMP_temperature;BMP_pressure;BME280_temperature;BME280_humidity;BME280_pressure;Samples;Min_cycle;Max_cycle;Signal;HPM_P1;HPM_P2
2022/05/18 00:00:57;;;;;;;6.60;0.90;;;;;;;7.57;62.02;100601.28;4972523;28;20038;-92
2022/05/18 00:03:45;;;;;;;4.05;0.73;;;;;;;7.46;62.32;100606.50;4988479;28;20058;-92
2022/05/18 00:06:29;;;;;;;2.22;0.77;;;;;;;7.53;62.12;100623.88;4989202;28;20064;-92
2022/05/18 00:09:14;;;;;;;2.50;0.93;;;;;;;7.45;62.69;100621.28;4990375;28;20481;-92
2022/05/18 00:11:59;;;;;;;3.35;1.17;;;;;;;7.37;63.22;100627.34;4984703;28;20485;-91
2022/05/18 00:14:43;;;;;;;3.55;1.15;;;;;;;7.39;63.05;100629.09;4974561;28;20042;-92
2022/05/18 00:17:28;;;;;;;4.82;1.73;;;;;;;7.28;63.66;100633.41;4978913;28;20517;-92
2022/05/18 00:20:12;;;;;;;1.50;1.10;;;;;;;7.13;64.24;100626.44;4987929;28;20493;-91
2022/05/18 00:22:59;;;;;;;3.28;0.98;;;;;;;7.13;64.38;100630.78;4988866;28;20046;-92
2022/05/18 00:25:44;;;;;;;6.50;0.93;;;;;;;7.11;64.53;100630.75;4986249;28;20061;-91
2022/05/18 00:28:29;;;;;;;3.78;0.80;;;;;;;7.08;64.98;100641.19;4972861;28;20065;-91
2022/05/18 00:31:19;;;;;;;1.95;0.88;;;;;;;7.05;65.32;100648.97;4988294;28;20465;-91
2022/05/18 00:34:03;;;;;;;1.33;0.70;;;;;;;6.91;66.38;100655.91;4985354;28;20505;-91
2022/05/18 00:36:48;;;;;;;4.47;1.88;;;;;;;6.86;66.52;100657.59;4989949;28;20477;-92
2022/05/18 00:39:32;;;;;;;6.57;1.58;;;;;;;6.81;66.97;100656.72;4991235;28;20062;-92
2022/05/18 00:42:23;;;;;;;3.90;1.48;;;;;;;6.79;67.35;100664.53;4991005;28;20037;-91
2022/05/18 00:45:09;;;;;;;3.08;1.10;;;;;;;6.75;67.58;100667.97;5006842;28;20069;-92
2022/05/18 00:47:54;;;;;;;2.15;0.90;;;;;;;6.66;67.86;100654.91;4975385;28;20475;-91
2022/05/18 00:50:40;;;;;;;1.88;0.90;;;;;;;6.68;68.19;100664.50;4983654;28;20319;-91
2022/05/18 00:53:30;;;;;;;4.72;0.98;;;;;;;6.52;68.49;100660.06;4987353;28;20382;-92
2022/05/18 00:56:21;;;;;;;3.00;0.70;;;;;;;6.46;68.99;100663.50;5005574;28;20037;-91
2022/05/18 00:59:13;;;;;;;3.33;1.20;;;;;;;6.37;69.62;100671.28;4997733;28;20050;-91
2022/05/18 01:02:01;;;;;;;3.92;1.27;;;;;;;6.36;70.19;100660.84;4986867;28;20122;-91
2022/05/18 01:04:50;;;;;;;3.28;1.60;;;;;;;6.13;74.98;100661.59;4998471;28;20039;-91
2022/05/18 01:07:43;;;;;;;3.58;1.30;;;;;;;6.22;72.06;100677.25;4979319;28;20449;-91
2022/05/18 01:10:31;;;;;;;3.53;0.90;;;;;;;6.15;75.86;100680.69;4979324;28;20034;-91
2022/05/18 01:13:15;;;;;;;3.97;1.48;;;;;;;6.09;72.15;100684.09;4986681;28;20039;-91
2022/05/18 01:15:59;;;;;;;2.83;1.52;;;;;;;6.03;74.14;100685.78;4971790;28;20452;-91
2022/05/18 01:18:45;;;;;;;3.65;1.75;;;;;;;5.95;73.56;100690.94;4976531;28;20401;-91
2022/05/18 01:21:41;;;;;;;7.30;0.98;;;;;;;5.92;73.91;100690.03;4987774;28;20046;-91
2022/05/18 01:24:48;;;;;;;2.80;1.40;;;;;;;5.91;72.84;100706.47;5002074;28;20076;-91
2022/05/18 01:27:33;;;;;;;2.28;0.88;;;;;;;5.77;74.57;100696.81;4975717;28;20045;-91
2022/05/18 01:30:18;;;;;;;3.03;1.08;;;;;;;5.87;73.73;100708.16;5011844;28;20076;-92
2022/05/18 01:33:07;;;;;;;2.20;1.10;;;;;;;5.66;75.57;100716.66;5001591;28;20049;-92
2022/05/18 01:35:52;;;;;;;3.30;1.17;;;;;;;5.59;74.60;100707.06;4987084;28;20030;-91
2022/05/18 01:38:37;;;;;;;4.05;1.40;;;;;;;5.52;75.22;100716.50;4985745;28;20057;-93
2022/05/18 01:41:22;;;;;;;3.67;1.05;;;;;;;5.50;75.17;100726.03;4988018;28;20125;-91
2022/05/18 01:44:06;;;;;;;2.40;0.60;;;;;;;5.44;77.36;100722.50;4983301;28;20042;-91
2022/05/18 01:46:53;;;;;;;1.35;0.57;;;;;;;5.43;75.69;100736.31;4988179;28;20377;-91
2022/05/18 01:49:41;;;;;;;4.65;3.00;;;;;;;5.43;76.71;100739.81;4973927;28;20065;-91
2022/05/18 01:52:25;;;;;;;2.95;1.95;;;;;;;5.30;76.94;100730.16;4983552;28;20038;-92
2022/05/18 01:55:10;;;;;;;3.85;1.42;;;;;;;5.28;79.34;100734.44;4987066;28;20065;-91
2022/05/18 01:57:54;;;;;;;2.90;1.85;;;;;;;5.14;78.15;100732.56;4984803;28;20045;-91
2022/05/18 02:00:40;;;;;;;5.35;2.00;;;;;;;5.16;79.13;100737.75;4976238;28;20049;-91
2022/05/18 02:03:25;;;;;;;7.05;1.70;;;;;;;5.08;80.14;100744.63;4985229;28;20062;-91
2022/05/18 02:06:09;;;;;;;1.95;1.30;;;;;;;4.87;82.23;100738.28;4985641;28;20073;-91
2022/05/18 02:08:53;;;;;;;3.78;1.63;;;;;;;4.90;80.38;100740.91;4988495;28;20038;-91
2022/05/18 02:11:38;;;;;;;4.80;1.48;;;;;;;4.78;83.42;100745.09;4980678;28;20038;-91
2022/05/18 02:14:23;;;;;;;5.05;1.15;;;;;;;4.68;84.92;100726.81;4973242;28;20045;-92
2022/05/18 02:17:07;;;;;;;2.53;1.25;;;;;;;4.66;84.27;100728.50;4987963;28;20488;-91
2022/05/18 02:19:52;;;;;;;2.08;0.90;;;;;;;4.59;84.74;100742.25;4970249;28;20041;-91
2022/05/18 02:22:37;;;;;;;3.80;1.20;;;;;;;4.60;86.05;100753.50;4973245;28;20054;-91
2022/05/18 02:25:21;;;;;;;4.05;1.30;;;;;;;4.59;85.81;100762.13;4983702;28;20431;-91
2022/05/18 02:28:06;;;;;;;8.43;2.10;;;;;;;4.43;87.86;100755.84;4973277;28;20046;-91
2022/05/18 02:30:50;;;;;;;6.07;0.80;;;;;;;4.41;86.96;100757.53;4990612;28;20052;-91
2022/05/18 02:33:36;;;;;;;3.60;1.23;;;;;;;4.32;86.88;100760.88;4984754;28;20038;-91
2022/05/18 02:36:20;;;;;;;6.75;1.15;;;;;;;4.35;87.66;100773.00;4984899;28;20034;-91
2022/05/18 02:39:04;;;;;;;7.53;2.05;;;;;;;4.34;86.52;100773.88;4991762;28;20042;-91
2022/05/18 02:41:49;;;;;;;4.72;1.20;;;;;;;4.30;88.33;100783.31;4971796;28;20484;-90
2022/05/18 02:44:34;;;;;;;2.80;0.80;;;;;;;4.19;88.17;100777.06;4984286;28;20370;-91
2022/05/18 02:47:21;;;;;;;2.28;1.02;;;;;;;4.14;88.16;100782.19;4988618;28;20037;-90
2022/05/18 02:50:06;;;;;;;2.40;1.23;;;;;;;4.01;89.13;100774.19;4980173;28;20054;-90
2022/05/18 02:52:51;;;;;;;2.40;0.93;;;;;;;3.93;89.59;100784.41;4986997;28;20043;-91
2022/05/18 02:58:44;;;;;;;3.55;0.80;;;;;;;3.80;91.33;100787.63;4984791;28;20046;-90
2022/05/18 03:01:29;;;;;;;2.20;1.20;;;;;;;3.78;93.31;100791.94;4987710;28;20046;-91
2022/05/18 03:04:14;;;;;;;2.17;1.10;;;;;;;3.81;92.31;100799.78;4999929;28;20433;-91
2022/05/18 03:06:59;;;;;;;4.03;1.30;;;;;;;3.74;93.80;100807.44;4988561;28;20413;-90
2022/05/18 03:09:44;;;;;;;3.78;1.05;;;;;;;3.72;96.94;100809.09;4974957;28;20172;-91
2022/05/18 03:12:29;;;;;;;2.45;1.05;;;;;;;3.68;100.00;100811.63;4985449;28;20046;-90
2022/05/18 03:15:13;;;;;;;5.45;1.10;;;;;;;3.51;100.00;100809.59;4986251;28;20500;-91
2022/05/18 03:17:58;;;;;;;3.28;1.33;;;;;;;3.61;100.00;100818.41;4991370;28;20037;-91
2022/05/18 03:23:46;;;;;;;1.85;0.90;;;;;;;3.39;100.00;100806.75;4988189;28;20042;-91
2022/05/18 03:26:30;;;;;;;2.83;0.70;;;;;;;3.48;100.00;100817.28;4974390;28;20034;-91
2022/05/18 03:29:17;;;;;;;5.68;1.10;;;;;;;3.38;100.00;100811.88;4989326;28;20148;-91
2022/05/18 03:32:02;;;;;;;2.53;1.35;;;;;;;3.45;100.00;100826.72;4989048;28;20041;-91
2022/05/18 03:34:47;;;;;;;3.10;1.33;;;;;;;3.43;100.00;100812.84;4978967;28;20401;-91
2022/05/18 03:37:31;;;;;;;4.22;1.10;;;;;;;3.40;100.00;100811.06;4971434;28;20062;-90
2022/05/18 03:40:16;;;;;;;3.75;1.30;;;;;;;3.48;100.00;100824.19;4975939;28;20041;-90
2022/05/18 03:43:00;;;;;;;2.72;1.40;;;;;;;3.49;100.00;100816.44;4997956;28;20038;-91
2022/05/18 03:45:45;;;;;;;3.35;2.08;;;;;;;3.52;100.00;100836.34;4989593;28;20049;-91
2022/05/18 03:48:31;;;;;;;2.55;1.30;;;;;;;3.42;100.00;100832.72;4972032;28;20178;-91
2022/05/18 03:51:16;;;;;;;4.10;2.13;;;;;;;3.60;100.00;100836.50;4989553;28;20046;-91
2022/05/18 03:54:01;;;;;;;2.95;1.25;;;;;;;3.63;100.00;100840.03;4989330;28;20409;-91
2022/05/18 03:56:45;;;;;;;2.80;1.08;;;;;;;3.77;100.00;100837.72;4974869;28;20041;-91
2022/05/18 03:59:30;;;;;;;2.97;1.30;;;;;;;3.74;100.00;100838.53;4985677;28;20038;-91
2022/05/18 04:02:14;;;;;;;2.83;1.30;;;;;;;3.98;100.00;100848.47;4970292;28;20046;-90
2022/05/18 04:04:58;;;;;;;2.88;1.33;;;;;;;4.14;100.00;100846.16;4994126;28;20045;-91
2022/05/18 04:07:44;;;;;;;4.05;1.30;;;;;;;4.52;100.00;100846.81;4977470;28;20045;-91
2022/05/18 04:10:28;;;;;;;5.13;1.70;;;;;;;5.24;95.29;100849.56;4976441;28;20053;-91
2022/05/18 04:13:18;;;;;;;3.20;1.45;;;;;;;5.72;89.57;100840.59;4988084;28;20045;-93
2022/05/18 04:16:03;;;;;;;5.20;1.65;;;;;;;6.27;84.59;100854.19;4991515;28;20038;-92
2022/05/18 04:18:47;;;;;;;4.65;0.85;;;;;;;6.68;82.77;100844.13;4988467;28;20469;-90
2022/05/18 04:21:32;;;;;;;5.63;1.27;;;;;;;6.78;81.38;100856.34;4991747;28;20043;-93
2022/05/18 04:24:16;;;;;;;3.22;1.40;;;;;;;7.40;75.13;100856.72;4997301;28;20046;-92
2022/05/18 04:27:00;;;;;;;5.75;1.50;;;;;;;8.25;70.09;100863.91;4992278;28;20058;-91
2022/05/18 04:29:45;;;;;;;3.40;1.10;;;;;;;8.88;67.44;100862.19;4990430;28;20061;-91
2022/05/18 04:32:29;;;;;;;4.95;1.60;;;;;;;9.21;64.23;100873.44;4976298;28;20125;-91
2022/05/18 04:35:15;;;;;;;3.80;1.13;;;;;;;8.87;67.30;100870.03;4972540;28;20049;-92
2022/05/18 04:37:59;;;;;;;2.97;1.30;;;;;;;9.57;63.08;100876.81;4990592;28;20077;-93
2022/05/18 04:40:45;;;;;;;5.25;1.50;;;;;;;9.74;61.96;100867.13;4994442;28;20048;-93
2022/05/18 04:43:32;;;;;;;4.15;0.90;;;;;;;10.02;62.17;100880.97;4993187;28;20544;-93
2022/05/18 04:46:16;;;;;;;6.68;1.40;;;;;;;10.24;60.43;100881.69;4991750;28;20881;-93
2022/05/18 04:49:00;;;;;;;3.45;1.00;;;;;;;10.45;60.26;100879.84;4978670;28;20096;-93
2022/05/18 04:51:45;;;;;;;3.03;0.98;;;;;;;10.69;57.40;100890.13;4992513;28;20042;-93
2022/05/18 04:54:29;;;;;;;5.78;1.10;;;;;;;10.27;59.66;100893.94;4987492;28;20166;-93
2022/05/18 04:57:14;;;;;;;2.03;1.10;;;;;;;11.08;56.35;100890.66;5001752;28;20039;-92
2022/05/18 04:59:58;;;;;;;3.65;0.90;;;;;;;11.25;54.47;100892.22;4989731;28;20042;-93
2022/05/18 05:02:43;;;;;;;1.75;0.93;;;;;;;10.98;56.37;100900.34;4988011;28;20042;-93
2022/05/18 05:05:27;;;;;;;1.27;0.85;;;;;;;11.04;54.56;100893.31;4986144;28;20035;-93
2022/05/18 05:08:12;;;;;;;1.58;1.02;;;;;;;11.59;52.71;100896.19;5001937;28;20053;-92
2022/05/18 05:10:56;;;;;;;4.05;1.00;;;;;;;11.49;54.33;100899.81;4993476;28;20041;-93
2022/05/18 05:13:41;;;;;;;3.75;0.70;;;;;;;11.80;51.26;100900.31;4992333;28;20039;-93
2022/05/18 05:16:28;;;;;;;1.63;1.00;;;;;;;11.83;52.35;100912.50;4974630;28;20061;-92
2022/05/18 05:19:14;;;;;;;2.55;0.90;;;;;;;11.97;49.75;100918.50;5003034;28;20054;-92
2022/05/18 05:21:59;;;;;;;4.30;1.60;;;;;;;12.33;49.11;100913.63;4995229;28;20034;-93
2022/05/18 05:24:45;;;;;;;2.92;0.88;;;;;;;12.14;47.97;100916.50;4990452;28;20038;-93
2022/05/18 05:27:29;;;;;;;1.90;0.68;;;;;;;12.53;47.00;100924.69;4972493;28;20117;-93
2022/05/18 05:30:14;;;;;;;3.22;1.20;;;;;;;12.27;46.55;100921.59;4991818;28;20057;-94
2022/05/18 05:32:58;;;;;;;1.67;0.80;;;;;;;12.28;48.19;100915.44;4993366;28;20477;-93
2022/05/18 05:35:43;;;;;;;3.25;0.93;;;;;;;12.72;46.77;100913.91;4970348;28;20096;-93
2022/05/18 05:38:28;;;;;;;3.63;0.80;;;;;;;12.75;48.42;100927.84;4989360;28;20038;-92
2022/05/18 05:41:13;;;;;;;2.40;1.02;;;;;;;13.37;45.06;100922.41;4977506;28;20042;-92
2022/05/18 05:43:57;;;;;;;1.60;0.70;;;;;;;13.71;44.28;100927.00;4990756;28;20046;-93
2022/05/18 05:46:42;;;;;;;1.65;0.75;;;;;;;13.89;43.62;100928.41;4973175;28;20034;-92
2022/05/18 05:49:26;;;;;;;1.70;0.90;;;;;;;14.06;43.54;100926.28;4981971;28;20061;-93
2022/05/18 05:52:11;;;;;;;1.95;0.82;;;;;;;14.17;42.44;100926.91;4990696;28;20042;-91
2022/05/18 05:54:56;;;;;;;3.63;0.70;;;;;;;13.76;42.66;100927.78;4988482;28;20034;-93
2022/05/18 05:57:40;;;;;;;4.38;0.93;;;;;;;14.02;44.06;100938.66;4990340;28;20052;-92
2022/05/18 06:00:25;;;;;;;3.35;1.20;;;;;;;14.28;42.08;100929.31;4973226;28;20042;-93
2022/05/18 06:03:10;;;;;;;3.05;1.23;;;;;;;14.36;41.60;100929.97;4972784;28;20409;-93
2022/05/18 06:05:56;;;;;;;2.28;0.90;;;;;;;15.21;41.34;100928.84;4991609;28;20547;-93
2022/05/18 06:08:41;;;;;;;1.60;0.95;;;;;;;15.05;40.35;100933.63;4974612;28;20042;-92
2022/05/18 06:11:27;;;;;;;2.00;1.30;;;;;;;14.53;41.22;100942.84;4991503;28;20084;-94
2022/05/18 06:14:12;;;;;;;4.07;1.38;;;;;;;14.33;42.07;100939.72;4985765;28;20045;-93
2022/05/18 06:16:56;;;;;;;4.95;1.55;;;;;;;14.78;40.99;100948.38;4983887;28;20035;-93
2022/05/18 06:19:41;;;;;;;2.40;1.50;;;;;;;14.71;39.75;100939.72;4973372;28;20054;-92
2022/05/18 06:22:26;;;;;;;3.42;1.23;;;;;;;15.86;41.14;100942.00;4973655;28;20073;-93
2022/05/18 06:25:13;;;;;;;2.38;1.30;;;;;;;16.05;39.48;100952.91;4988701;28;20049;-94
2022/05/18 06:27:58;;;;;;;3.17;1.40;;;;;;;16.07;39.91;100961.63;4991106;28;20427;-92
2022/05/18 06:30:44;;;;;;;2.55;1.20;;;;;;;15.56;39.17;100964.81;4986399;28;20039;-93
2022/05/18 06:33:28;;;;;;;1.35;0.65;;;;;;;15.93;39.24;100955.03;5000637;28;20038;-93
2022/05/18 06:36:13;;;;;;;3.35;1.13;;;;;;;15.95;38.50;100963.78;4991364;28;20042;-93
2022/05/18 06:38:57;;;;;;;1.70;0.88;;;;;;;15.60;39.05;100966.47;4974687;28;20050;-93
2022/05/18 06:41:42;;;;;;;1.10;0.70;;;;;;;15.97;38.24;100969.88;4985586;28;20039;-93
2022/05/18 06:44:27;;;;;;;3.90;0.75;;;;;;;16.00;36.52;100972.44;4984082;28;20029;-93
2022/05/18 06:47:12;;;;;;;4.55;0.80;;;;;;;16.20;37.07;100972.72;4986945;28;20034;-93
2022/05/18 06:49:56;;;;;;;2.28;0.85;;;;;;;16.00;39.71;100977.72;4986516;28;20478;-93
2022/05/18 06:52:41;;;;;;;2.60;0.82;;;;;;;16.70;36.99;100978.22;4983965;28;20030;-93
2022/05/18 06:55:25;;;;;;;2.97;1.23;;;;;;;16.38;37.59;100981.88;4978847;28;20038;-93
2022/05/18 06:58:10;;;;;;;3.13;1.00;;;;;;;16.63;37.33;100981.09;4986057;28;20039;-93
2022/05/18 07:00:54;;;;;;;2.22;0.70;;;;;;;16.73;36.71;100990.47;4988715;28;20061;-94
2022/05/18 07:03:39;;;;;;;1.80;0.95;;;;;;;17.01;35.02;100988.72;4987179;28;20045;-92
2022/05/18 07:06:25;;;;;;;1.67;0.57;;;;;;;17.14;35.00;100991.81;4985551;28;20042;-94
2022/05/18 07:09:13;;;;;;;2.40;0.77;;;;;;;16.35;35.76;101003.13;5012058;28;20046;-93
2022/05/18 07:11:58;;;;;;;1.75;0.70;;;;;;;17.62;35.43;100991.03;5000322;28;20034;-94
2022/05/18 07:14:43;;;;;;;2.63;0.80;;;;;;;17.37;34.64;100991.03;4983903;28;20437;-94
2022/05/18 07:17:27;;;;;;;1.65;0.70;;;;;;;17.51;34.75;100991.41;4983114;28;20038;-94
2022/05/18 07:20:11;;;;;;;1.63;0.70;;;;;;;17.22;36.06;101004.78;4990159;28;20070;-96
2022/05/18 07:22:56;;;;;;;3.53;0.80;;;;;;;18.32;35.23;100989.38;4986632;28;20054;-96
2022/05/18 07:25:41;;;;;;;2.08;0.60;;;;;;;18.67;32.67;100988.84;4951891;28;20452;-94
2022/05/18 07:28:26;;;;;;;1.55;0.60;;;;;;;18.53;33.63;100987.69;5002298;28;20039;-96
2022/05/18 07:31:11;;;;;;;1.58;0.60;;;;;;;18.24;33.36;100989.69;4984613;28;20060;-96
2022/05/18 07:33:57;;;;;;;0.88;0.55;;;;;;;18.79;33.56;100992.00;4976799;28;20050;-96
2022/05/18 07:36:42;;;;;;;0.68;0.40;;;;;;;18.91;34.51;100995.00;4985894;28;20046;-96
2022/05/18 07:39:28;;;;;;;3.63;0.43;;;;;;;18.92;33.31;100993.22;4973845;28;20056;-96
2022/05/18 07:42:14;;;;;;;0.80;0.40;;;;;;;18.56;32.83;100984.91;4986592;28;20044;-95
2022/05/18 07:44:58;;;;;;;1.35;0.70;;;;;;;18.79;30.88;100998.16;4986815;28;20461;-96
2022/05/18 07:47:42;;;;;;;1.50;0.95;;;;;;;19.64;31.01;100991.97;4995854;28;20069;-96
2022/05/18 07:50:26;;;;;;;1.35;0.45;;;;;;;18.49;33.30;101000.22;4983973;28;20034;-96
2022/05/18 07:53:11;;;;;;;2.65;0.40;;;;;;;19.63;32.37;100993.75;4985974;28;20038;-95
2022/05/18 07:55:55;;;;;;;2.35;0.57;;;;;;;19.57;31.59;100989.56;4976064;28;20140;-95
2022/05/18 07:58:40;;;;;;;2.75;0.45;;;;;;;20.25;32.09;101005.16;4989367;28;20055;-95
2022/05/18 08:01:25;;;;;;;3.22;0.75;;;;;;;20.41;30.87;100998.19;4989858;28;20042;-95
2022/05/18 08:04:10;;;;;;;0.55;0.40;;;;;;;19.84;30.71;100998.13;4991244;28;20115;-95
2022/05/18 08:06:54;;;;;;;4.63;0.32;;;;;;;20.61;30.46;101001.75;4987220;28;20057;-96
2022/05/18 08:15:05;;;;;;;7.13;1.27;;;;;;;20.28;29.46;100994.38;4989137;28;20038;-96
2022/05/18 08:15:48;;;;;;;2.50;0.43;;;;;;;20.68;29.79;101003.16;4986355;28;20034;-95
2022/05/18 08:18:33;;;;;;;2.53;0.40;;;;;;;19.32;29.44;101004.81;4984430;28;20042;-95
2022/05/18 08:21:18;;;;;;;4.20;0.57;;;;;;;19.65;29.13;100999.00;4984412;28;20093;-93
2022/05/18 08:24:05;;;;;;;1.38;0.35;;;;;;;20.58;27.63;100993.91;4976987;28;21373;-95
2022/05/18 08:26:50;;;;;;;4.10;0.40;;;;;;;20.05;28.78;100993.66;4973543;28;20053;-95
2022/05/18 08:29:35;;;;;;;2.08;0.73;;;;;;;20.30;29.77;101005.78;4986629;28;20117;-96
2022/05/18 08:32:20;;;;;;;2.45;1.08;;;;;;;19.35;27.58;100997.59;4964012;28;20046;-95
2022/05/18 08:35:06;;;;;;;2.08;0.40;;;;;;;19.48;30.39;101005.03;4985624;28;20077;-95
2022/05/18 08:37:51;;;;;;;0.85;0.50;;;;;;;20.16;27.34;100995.81;4996926;28;20066;-95
2022/05/18 08:40:38;;;;;;;1.55;0.20;;;;;;;19.69;30.55;100998.78;4966529;28;20042;-95
2022/05/18 08:43:35;;;;;;;2.95;0.55;;;;;;;20.67;27.13;100993.44;4990693;28;20041;-96
2022/05/18 08:47:13;;;;;;;1.50;0.30;;;;;;;20.92;28.68;100987.78;4992311;28;20048;-95
2022/05/18 08:50:11;;;;;;;1.77;0.57;;;;;;;20.15;30.01;100990.53;4983782;28;20058;-96
2022/05/18 08:53:38;;;;;;;0.70;0.20;;;;;;;20.40;29.12;100991.13;4989033;28;20493;-95
2022/05/18 08:56:32;;;;;;;1.10;0.40;;;;;;;21.35;28.20;100993.63;4978837;28;20067;-95
2022/05/18 08:59:22;;;;;;;0.82;0.60;;;;;;;20.48;32.84;100996.09;4969515;28;20042;-96
2022/05/18 09:02:20;;;;;;;6.32;0.20;;;;;;;20.28;27.87;101000.56;4991315;28;20038;-95
2022/05/18 09:05:13;;;;;;;2.03;0.40;;;;;;;20.02;28.32;100985.81;4978651;28;20046;-96
2022/05/18 09:08:14;;;;;;;0.75;0.30;;;;;;;20.80;27.62;100991.94;4975902;28;20101;-96
2022/05/18 09:11:05;;;;;;;0.80;0.20;;;;;;;20.60;27.72;100992.88;4976940;28;20398;-94
2022/05/18 09:13:49;;;;;;;1.00;0.70;;;;;;;20.63;28.40;100991.88;4996329;28;20034;-95
2022/05/18 09:16:44;;;;;;;0.55;0.40;;;;;;;21.58;25.05;100984.44;4990568;28;20078;-96
2022/05/18 09:19:29;;;;;;;0.73;0.20;;;;;;;21.12;27.88;100992.97;4984301;28;20034;-95
2022/05/18 09:23:05;;;;;;;0.70;0.25;;;;;;;21.32;26.02;100996.41;4972916;28;20046;-96
2022/05/18 09:25:52;;;;;;;2.85;0.20;;;;;;;21.23;25.02;100990.63;4995170;28;20050;-95
2022/05/18 09:29:05;;;;;;;1.52;0.40;;;;;;;21.30;24.42;100980.53;5013839;28;20052;-96
2022/05/18 09:32:08;;;;;;;1.45;0.45;;;;;;;21.83;25.76;100984.88;4977200;28;20076;-96
2022/05/18 09:35:12;;;;;;;1.20;0.30;;;;;;;21.91;22.71;100982.69;4981284;28;20066;-94
2022/05/18 09:38:08;;;;;;;3.55;0.30;;;;;;;20.95;25.64;100985.81;4988721;28;20057;-96
2022/05/18 09:40:53;;;;;;;1.98;0.22;;;;;;;20.59;25.14;100974.31;4990497;28;20041;-95
2022/05/18 09:43:59;;;;;;;3.65;1.33;;;;;;;21.67;26.06;100975.97;4990238;28;20038;-94
2022/05/18 09:46:46;;;;;;;2.70;0.40;;;;;;;21.83;26.04;100970.69;4972957;28;20073;-95
2022/05/18 09:50:00;;;;;;;2.35;0.30;;;;;;;21.56;24.54;100975.69;4984498;28;20047;-96
2022/05/18 09:52:46;;;;;;;2.10;0.38;;;;;;;21.06;23.10;100979.09;4991508;28;20042;-96
2022/05/18 09:55:31;;;;;;;0.63;0.30;;;;;;;21.45;24.36;100970.94;4976507;28;20042;-96
2022/05/18 09:58:35;;;;;;;0.70;0.20;;;;;;;21.68;25.77;100978.56;4987981;28;20057;-96
2022/05/18 10:07:30;;;;;;;1.20;0.10;;;;;;;22.48;24.85;100978.72;4986926;28;20039;-95
2022/05/18 10:10:19;;;;;;;1.45;0.32;;;;;;;22.64;23.35;100976.91;4981043;28;20046;-96
2022/05/18 10:13:18;;;;;;;0.93;0.20;;;;;;;22.02;23.17;100974.09;4972811;28;20405;-96
2022/05/18 10:16:04;;;;;;;1.20;0.20;;;;;;;21.55;25.44;100977.50;4970456;28;20034;-96
2022/05/18 10:18:51;;;;;;;1.40;0.30;;;;;;;23.48;23.75;100968.44;4984619;28;20097;-95
2022/05/18 10:21:50;;;;;;;3.15;0.20;;;;;;;23.22;22.97;100965.53;4976034;28;20448;-95
2022/05/18 10:24:34;;;;;;;2.90;0.38;;;;;;;21.85;22.52;100971.47;4986471;28;20037;-94
2022/05/18 10:27:41;;;;;;;0.20;0.10;;;;;;;21.73;21.98;100969.47;4975309;28;20057;-95
2022/05/18 10:30:29;;;;;;;40.70;4.32;;;;;;;21.97;24.63;100965.50;4971884;28;20045;-96
2022/05/18 10:33:34;;;;;;;2.22;0.50;;;;;;;22.82;23.46;100969.66;4988360;28;20042;-96
2022/05/18 10:36:27;;;;;;;3.38;0.30;;;;;;;23.33;23.68;100960.41;4986929;28;20473;-96
2022/05/18 10:39:13;;;;;;;2.00;0.20;;;;;;;23.13;23.08;100967.88;4980170;28;20041;-96
2022/05/18 10:41:58;;;;;;;2.30;0.30;;;;;;;22.44;22.17;100958.50;4964666;28;20046;-95
2022/05/18 10:44:44;;;;;;;3.70;0.20;;;;;;;22.46;24.58;100952.13;4988667;28;20100;-96
2022/05/18 10:47:35;;;;;;;1.85;0.40;;;;;;;22.33;23.33;100953.78;4993369;28;20042;-95
2022/05/18 10:50:25;;;;;;;0.73;0.30;;;;;;;22.93;25.14;100955.66;4957789;28;20089;-96
2022/05/18 10:53:13;;;;;;;0.50;0.22;;;;;;;23.48;23.84;100950.59;4972832;28;20062;-95
2022/05/18 10:55:57;;;;;;;0.93;0.28;;;;;;;23.10;23.13;100952.88;4973293;28;20034;-96
2022/05/18 10:58:49;;;;;;;2.40;0.28;;;;;;;23.19;22.82;100949.69;4973452;28;20042;-96
2022/05/18 11:01:54;;;;;;;0.63;0.30;;;;;;;23.69;22.67;100939.56;4971497;28;20066;-95
2022/05/18 11:04:54;;;;;;;2.88;0.35;;;;;;;22.26;23.40;100939.03;5006361;28;20053;-96
2022/05/18 11:07:39;;;;;;;1.33;0.22;;;;;;;22.89;23.85;100935.44;4975308;28;20042;-96
2022/05/18 11:10:52;;;;;;;4.47;0.20;;;;;;;23.85;23.21;100921.59;4971404;28;20034;-96
2022/05/18 11:13:59;;;;;;;0.68;0.22;;;;;;;22.24;22.76;100930.25;4986550;28;20634;-96
2022/05/18 11:17:20;;;;;;;0.60;0.10;;;;;;;23.27;22.99;100918.03;4975361;28;20392;-95
2022/05/18 11:20:13;;;;;;;3.67;0.20;;;;;;;23.54;20.88;100926.16;4992064;28;20053;-96
2022/05/18 11:23:17;;;;;;;1.77;0.40;;;;;;;23.11;22.02;100930.59;4969510;28;20543;-96
2022/05/18 11:26:24;;;;;;;0.30;0.20;;;;;;;22.87;22.17;100917.69;4990358;28;20040;-96
2022/05/18 11:29:28;;;;;;;0.77;0.30;;;;;;;23.60;20.94;100924.94;4969725;28;20037;-96
2022/05/18 11:32:31;;;;;;;4.03;0.20;;;;;;;23.02;21.89;100915.09;5004554;28;20096;-94
2022/05/18 11:35:25;;;;;;;1.65;0.40;;;;;;;22.25;20.41;100918.63;4972939;28;20049;-95
2022/05/18 11:38:30;;;;;;;2.78;0.43;;;;;;;22.95;20.19;100917.28;4987676;28;20049;-95
2022/05/18 11:41:23;;;;;;;0.85;0.30;;;;;;;23.51;20.06;100909.44;4990921;28;20042;-95
2022/05/18 11:44:27;;;;;;;0.63;0.20;;;;;;;23.72;21.50;100910.84;4982510;28;20054;-94
2022/05/18 11:47:41;;;;;;;1.15;0.28;;;;;;;22.94;22.19;100912.84;4986823;28;20034;-95
2022/05/18 11:50:39;;;;;;;2.97;0.20;;;;;;;22.84;20.49;100917.00;4984953;28;20485;-95
2022/05/18 11:53:30;;;;;;;2.58;0.30;;;;;;;22.14;19.62;100905.88;4970282;28;20859;-96
2022/05/18 11:56:48;;;;;;;2.58;0.15;;;;;;;22.24;18.96;100904.44;4982051;28;20058;-96
2022/05/18 11:59:45;;;;;;;2.17;0.20;;;;;;;22.41;18.84;100903.47;4949859;28;20050;-95
2022/05/18 12:02:48;;;;;;;0.95;0.10;;;;;;;22.34;18.32;100897.63;4974406;28;20081;-94
2022/05/18 12:05:46;;;;;;;0.88;0.20;;;;;;;22.89;20.57;100906.91;4987377;28;20050;-95
2022/05/18 12:08:44;;;;;;;0.85;0.30;;;;;;;22.79;19.87;100905.75;4984878;28;20088;-96
2022/05/18 12:11:56;;;;;;;0.50;0.10;;;;;;;22.41;17.90;100903.47;4963636;28;20081;-95
2022/05/18 12:14:50;;;;;;;2.92;0.10;;;;;;;23.07;19.02;100895.19;4992831;28;20041;-95
2022/05/18 12:17:55;;;;;;;5.35;0.10;;;;;;;22.62;19.11;100904.91;4997632;28;20057;-95
2022/05/18 12:20:42;;;;;;;1.05;0.20;;;;;;;22.39;17.46;100898.25;4990863;28;20100;-96
2022/05/18 12:23:31;;;;;;;0.85;0.10;;;;;;;22.73;18.63;100903.44;4990035;28;20089;-96
2022/05/18 12:26:21;;;;;;;1.33;0.20;;;;;;;21.89;16.95;100891.22;4980913;28;20030;-95
2022/05/18 12:29:08;;;;;;;0.43;0.20;;;;;;;23.01;20.03;100892.88;5013757;28;20056;-96
2022/05/18 12:31:55;;;;;;;0.77;0.20;;;;;;;23.25;17.53;100879.84;4978078;28;20477;-96
2022/05/18 12:34:45;;;;;;;1.35;0.60;;;;;;;21.83;17.97;100880.88;4994578;28;20038;-96
2022/05/18 12:37:46;;;;;;;0.77;0.70;;;;;;;22.58;18.15;100886.47;4992686;28;20108;-96
2022/05/18 12:40:50;;;;;;;1.40;0.10;;;;;;;21.84;17.67;100885.28;4975188;28;20034;-95
2022/05/18 12:43:43;;;;;;;1.75;0.10;;;;;;;21.39;18.29;100885.97;5005478;28;20037;-95
2022/05/18 12:46:37;;;;;;;1.05;0.10;;;;;;;21.89;17.55;100879.69;4977217;28;20041;-96
2022/05/18 12:49:30;;;;;;;0.25;0.20;;;;;;;22.42;17.90;100874.97;4977837;28;21626;-94
2022/05/18 12:52:55;;;;;;;2.58;0.15;;;;;;;21.88;17.11;100869.97;5002449;28;20058;-95
2022/05/18 12:55:42;;;;;;;1.05;0.63;;;;;;;22.24;17.12;100866.22;4975971;28;20098;-94
2022/05/18 12:58:35;;;;;;;0.93;0.13;;;;;;;21.89;18.02;100853.88;4972447;28;20366;-95
2022/05/18 13:01:21;;;;;;;1.42;0.22;;;;;;;21.65;17.48;100872.09;5020838;28;20699;-95
2022/05/18 13:04:09;;;;;;;0.73;0.13;;;;;;;22.15;18.18;100862.22;4978112;28;20046;-93
2022/05/18 13:07:00;;;;;;;0.73;0.25;;;;;;;22.15;18.38;100857.78;4991222;28;20045;-96
2022/05/18 13:09:46;;;;;;;2.25;0.90;;;;;;;22.31;17.45;100851.59;4981119;28;20038;-94
2022/05/18 13:12:39;;;;;;;1.38;0.40;;;;;;;21.06;18.69;100854.81;4969934;28;20048;-94
2022/05/18 13:15:56;;;;;;;0.43;0.17;;;;;;;21.88;19.75;100862.84;4972446;28;20045;-94
2022/05/18 13:18:41;;;;;;;1.30;0.22;;;;;;;22.35;20.58;100845.09;5001021;28;21064;-95
2022/05/18 13:21:28;;;;;;;0.60;0.20;;;;;;;21.77;20.09;100845.69;4975358;28;20056;-95
2022/05/18 13:24:42;;;;;;;3.97;0.30;;;;;;;21.54;20.57;100845.16;4978333;28;20431;-96